sensor_id;sensor_type;location;lat;lon;timestamp;temperature;humidity
73643;DHT22;61938;48.652;9.292;2023-05-16T00:01:35;10.00;99.90
73643;DHT22;61938;48.652;9.292;2023-05-16T00:04:00;10.00;99.90
73643;DHT22;61938;48.652;9.292;2023-05-16T00:06:27;10.00;99.90
73643;DHT22;61938;48.652;9.292;2023-05-16T00:08:53;9.90;99.90
73643;DHT22;61938;48.652;9.292;2023-05-16T00:11:18;9.90;99.90
73643;DHT22;61938;48.652;9.292;2023-05-16T00:13:44;9.90;99.90
73643;DHT22;61938;48.652;9.292;2023-05-16T00:16:11;9.80;99.90
73643;DHT22;61938;48.652;9.292;2023-05-16T00:18:38;9.80;99.90
73643;DHT22;61938;48.652;9.292;2023-05-16T00:21:05;9.80;99.90
73643;DHT22;61938;48.652;9.292;2023-05-16T00:23:31;9.80;99.90
73643;DHT22;61938;48.652;9.292;2023-05-16T00:25:56;9.80;99.90
73643;DHT22;61938;48.652;9.292;2023-05-16T00:28:22;9.80;99.90
73643;DHT22;61938;48.652;9.292;2023-05-16T00:30:47;9.80;99.90
73643;DHT22;61938;48.652;9.292;2023-05-16T00:33:13;9.70;99.90
73643;DHT22;61938;48.652;9.292;2023-05-16T00:35:39;9.60;99.90
73643;DHT22;61938;48.652;9.292;2023-05-16T00:38:04;9.60;99.90
73643;DHT22;61938;48.652;9.292;2023-05-16T00:40:30;9.60;99.90
73643;DHT22;61938;48.652;9.292;2023-05-16T00:42:56;9.60;99.90
73643;DHT22;61938;48.652;9.292;2023-05-16T00:45:22;9.60;99.90
73643;DHT22;61938;48.652;9.292;2023-05-16T00:47:48;9.60;99.90
73643;DHT22;61938;48.652;9.292;2023-05-16T00:50:13;9.60;99.90
73643;DHT22;61938;48.652;9.292;2023-05-16T00:52:39;9.60;99.90
73643;DHT22;61938;48.652;9.292;2023-05-16T00:55:06;9.70;99.90
73643;DHT22;61938;48.652;9.292;2023-05-16T00:57:31;9.70;99.90
73643;DHT22;61938;48.652;9.292;2023-05-16T00:59:57;9.80;99.90
73643;DHT22;61938;48.652;9.292;2023-05-16T01:02:23;9.80;99.90
73643;DHT22;61938;48.652;9.292;2023-05-16T01:04:52;9.80;99.90
73643;DHT22;61938;48.652;9.292;2023-05-16T01:07:18;9.90;99.90
73643;DHT22;61938;48.652;9.292;2023-05-16T01:09:44;9.90;99.90
73643;DHT22;61938;48.652;9.292;2023-05-16T01:12:36;9.90;99.90
73643;DHT22;61938;48.652;9.292;2023-05-16T01:15:29;9.90;99.90
73643;DHT22;61938;48.652;9.292;2023-05-16T01:18:06;9.90;99.90
73643;DHT22;61938;48.652;9.292;2023-05-16T01:20:45;9.80;99.90
73643;DHT22;61938;48.652;9.292;2023-05-16T01:23:39;9.90;99.90
73643;DHT22;61938;48.652;9.292;2023-05-16T01:26:20;9.70;99.90
73643;DHT22;61938;48.652;9.292;2023-05-16T01:28:47;9.70;99.90
73643;DHT22;61938;48.652;9.292;2023-05-16T01:31:13;9.70;99.90
73643;DHT22;61938;48.652;9.292;2023-05-16T01:33:39;9.70;99.90
73643;DHT22;61938;48.652;9.292;2023-05-16T01:38:43;9.70;99.90
73643;DHT22;61938;48.652;9.292;2023-05-16T01:41:21;9.60;99.90
73643;DHT22;61938;48.652;9.292;2023-05-16T01:43:52;9.70;99.90
73643;DHT22;61938;48.652;9.292;2023-05-16T01:46:24;9.70;99.90
73643;DHT22;61938;48.652;9.292;2023-05-16T01:49:24;9.70;99.90
73643;DHT22;61938;48.652;9.292;2023-05-16T01:52:01;9.70;99.90
73643;DHT22;61938;48.652;9.292;2023-05-16T01:54:31;9.70;99.90
73643;DHT22;61938;48.652;9.292;2023-05-16T01:56:58;9.70;99.90
73643;DHT22;61938;48.652;9.292;2023-05-16T01:59:25;9.70;99.90
73643;DHT22;61938;48.652;9.292;2023-05-16T02:01:56;9.80;99.90
73643;DHT22;61938;48.652;9.292;2023-05-16T02:04:22;9.80;99.90
73643;DHT22;61938;48.652;9.292;2023-05-16T02:06:49;9.80;99.90
73643;DHT22;61938;48.652;9.292;2023-05-16T02:09:14;9.80;99.90
73643;DHT22;61938;48.652;9.292;2023-05-16T02:11:40;9.80;99.90
73643;DHT22;61938;48.652;9.292;2023-05-16T02:14:06;9.90;99.90
73643;DHT22;61938;48.652;9.292;2023-05-16T02:16:32;9.90;99.90
73643;DHT22;61938;48.652;9.292;2023-05-16T02:18:58;9.90;99.90
73643;DHT22;61938;48.652;9.292;2023-05-16T02:21:23;10.00;99.90
73643;DHT22;61938;48.652;9.292;2023-05-16T02:23:49;10.00;99.90
73643;DHT22;61938;48.652;9.292;2023-05-16T02:26:15;10.00;99.90
73643;DHT22;61938;48.652;9.292;2023-05-16T02:28:40;10.00;99.90
73643;DHT22;61938;48.652;9.292;2023-05-16T02:31:06;10.00;99.90
73643;DHT22;61938;48.652;9.292;2023-05-16T02:33:32;10.00;99.90
73643;DHT22;61938;48.652;9.292;2023-05-16T02:35:58;10.00;99.90
73643;DHT22;61938;48.652;9.292;2023-05-16T02:38:24;10.00;99.90
73643;DHT22;61938;48.652;9.292;2023-05-16T02:40:49;10.00;99.90
73643;DHT22;61938;48.652;9.292;2023-05-16T02:43:15;10.00;99.90
73643;DHT22;61938;48.652;9.292;2023-05-16T02:45:41;10.00;99.90
73643;DHT22;61938;48.652;9.292;2023-05-16T02:48:06;10.00;99.90
73643;DHT22;61938;48.652;9.292;2023-05-16T02:50:33;10.00;99.90
73643;DHT22;61938;48.652;9.292;2023-05-16T02:52:58;10.00;99.90
73643;DHT22;61938;48.652;9.292;2023-05-16T02:55:27;10.00;99.90
73643;DHT22;61938;48.652;9.292;2023-05-16T02:57:52;10.00;99.90
73643;DHT22;61938;48.652;9.292;2023-05-16T03:00:18;10.00;99.90
73643;DHT22;61938;48.652;9.292;2023-05-16T03:02:44;10.10;99.90
73643;DHT22;61938;48.652;9.292;2023-05-16T03:05:09;10.10;99.90
73643;DHT22;61938;48.652;9.292;2023-05-16T03:07:36;10.10;99.90
73643;DHT22;61938;48.652;9.292;2023-05-16T03:10:02;10.10;99.90
73643;DHT22;61938;48.652;9.292;2023-05-16T03:12:28;10.10;99.90
73643;DHT22;61938;48.652;9.292;2023-05-16T03:14:53;10.00;99.90
73643;DHT22;61938;48.652;9.292;2023-05-16T03:17:19;10.00;99.90
73643;DHT22;61938;48.652;9.292;2023-05-16T03:19:45;10.10;99.90
73643;DHT22;61938;48.652;9.292;2023-05-16T03:22:10;10.10;99.90
73643;DHT22;61938;48.652;9.292;2023-05-16T03:24:36;10.20;99.90
73643;DHT22;61938;48.652;9.292;2023-05-16T03:27:01;10.20;99.90
73643;DHT22;61938;48.652;9.292;2023-05-16T03:29:29;10.20;99.90
73643;DHT22;61938;48.652;9.292;2023-05-16T03:31:55;10.20;99.90
73643;DHT22;61938;48.652;9.292;2023-05-16T03:34:20;10.30;99.90
73643;DHT22;61938;48.652;9.292;2023-05-16T03:36:50;10.30;99.90
73643;DHT22;61938;48.652;9.292;2023-05-16T03:39:16;10.20;99.90
73643;DHT22;61938;48.652;9.292;2023-05-16T03:41:42;10.30;99.90
73643;DHT22;61938;48.652;9.292;2023-05-16T03:44:07;10.20;99.90
73643;DHT22;61938;48.652;9.292;2023-05-16T03:46:34;10.30;99.90
73643;DHT22;61938;48.652;9.292;2023-05-16T03:49:00;10.30;99.90
73643;DHT22;61938;48.652;9.292;2023-05-16T03:51:25;10.30;99.90
73643;DHT22;61938;48.652;9.292;2023-05-16T03:53:51;10.30;99.90
73643;DHT22;61938;48.652;9.292;2023-05-16T03:56:16;10.30;99.90
73643;DHT22;61938;48.652;9.292;2023-05-16T03:58:42;10.20;99.90
73643;DHT22;61938;48.652;9.292;2023-05-16T04:01:07;10.20;99.90
73643;DHT22;61938;48.652;9.292;2023-05-16T04:03:33;10.10;99.90
73643;DHT22;61938;48.652;9.292;2023-05-16T04:05:58;10.10;99.90
73643;DHT22;61938;48.652;9.292;2023-05-16T04:08:24;10.10;99.90
73643;DHT22;61938;48.652;9.292;2023-05-16T04:10:50;10.20;99.90
73643;DHT22;61938;48.652;9.292;2023-05-16T04:13:15;10.20;99.90
73643;DHT22;61938;48.652;9.292;2023-05-16T04:15:41;10.20;99.90
73643;DHT22;61938;48.652;9.292;2023-05-16T04:18:07;10.20;99.90
73643;DHT22;61938;48.652;9.292;2023-05-16T04:20:33;10.20;99.90
73643;DHT22;61938;48.652;9.292;2023-05-16T04:22:59;10.20;99.90
73643;DHT22;61938;48.652;9.292;2023-05-16T04:25:25;11.30;99.90
73643;DHT22;61938;48.652;9.292;2023-05-16T04:27:50;10.30;99.90
73643;DHT22;61938;48.652;9.292;2023-05-16T04:30:16;10.30;99.90
73643;DHT22;61938;48.652;9.292;2023-05-16T04:32:42;10.30;99.90
73643;DHT22;61938;48.652;9.292;2023-05-16T04:35:08;10.40;99.90
73643;DHT22;61938;48.652;9.292;2023-05-16T04:37:33;10.40;99.90
73643;DHT22;61938;48.652;9.292;2023-05-16T04:40:00;10.40;99.90
73643;DHT22;61938;48.652;9.292;2023-05-16T04:42:26;10.40;99.90
73643;DHT22;61938;48.652;9.292;2023-05-16T04:44:51;10.40;99.90
73643;DHT22;61938;48.652;9.292;2023-05-16T04:47:17;10.40;99.90
73643;DHT22;61938;48.652;9.292;2023-05-16T04:49:43;10.40;99.90
73643;DHT22;61938;48.652;9.292;2023-05-16T04:52:08;10.50;99.90
73643;DHT22;61938;48.652;9.292;2023-05-16T04:54:34;10.50;99.90
73643;DHT22;61938;48.652;9.292;2023-05-16T04:56:59;10.60;99.90
73643;DHT22;61938;48.652;9.292;2023-05-16T04:59:25;10.70;99.90
73643;DHT22;61938;48.652;9.292;2023-05-16T05:01:51;10.70;99.90
73643;DHT22;61938;48.652;9.292;2023-05-16T05:04:16;10.70;99.90
73643;DHT22;61938;48.652;9.292;2023-05-16T05:06:42;10.80;99.90
73643;DHT22;61938;48.652;9.292;2023-05-16T05:09:08;10.80;99.90
73643;DHT22;61938;48.652;9.292;2023-05-16T05:11:34;10.90;99.90
73643;DHT22;61938;48.652;9.292;2023-05-16T05:14:00;10.90;99.90
73643;DHT22;61938;48.652;9.292;2023-05-16T05:16:25;10.90;99.90
73643;DHT22;61938;48.652;9.292;2023-05-16T05:18:51;11.00;99.90
73643;DHT22;61938;48.652;9.292;2023-05-16T05:21:17;11.00;99.90
73643;DHT22;61938;48.652;9.292;2023-05-16T05:23:44;11.10;99.90
73643;DHT22;61938;48.652;9.292;2023-05-16T05:26:10;11.10;99.90
73643;DHT22;61938;48.652;9.292;2023-05-16T05:28:36;11.10;99.90
73643;DHT22;61938;48.652;9.292;2023-05-16T05:31:03;11.20;99.90
73643;DHT22;61938;48.652;9.292;2023-05-16T05:33:30;11.20;99.90
73643;DHT22;61938;48.652;9.292;2023-05-16T05:35:55;11.20;99.90
73643;DHT22;61938;48.652;9.292;2023-05-16T05:38:21;11.20;99.90
73643;DHT22;61938;48.652;9.292;2023-05-16T05:40:47;11.30;99.90
73643;DHT22;61938;48.652;9.292;2023-05-16T05:43:14;11.30;99.90
73643;DHT22;61938;48.652;9.292;2023-05-16T05:45:39;11.30;99.90
73643;DHT22;61938;48.652;9.292;2023-05-16T05:48:05;11.30;99.90
73643;DHT22;61938;48.652;9.292;2023-05-16T05:50:31;11.30;99.90
73643;DHT22;61938;48.652;9.292;2023-05-16T05:52:56;11.30;99.90
73643;DHT22;61938;48.652;9.292;2023-05-16T05:55:22;11.30;99.90
73643;DHT22;61938;48.652;9.292;2023-05-16T05:57:47;11.40;99.90
73643;DHT22;61938;48.652;9.292;2023-05-16T06:00:13;11.30;99.90
73643;DHT22;61938;48.652;9.292;2023-05-16T06:02:39;11.40;99.90
73643;DHT22;61938;48.652;9.292;2023-05-16T06:05:05;11.30;99.90
73643;DHT22;61938;48.652;9.292;2023-05-16T06:07:30;11.40;99.90
73643;DHT22;61938;48.652;9.292;2023-05-16T06:09:56;11.40;99.90
73643;DHT22;61938;48.652;9.292;2023-05-16T06:12:21;11.40;99.90
73643;DHT22;61938;48.652;9.292;2023-05-16T06:14:47;11.40;99.90
73643;DHT22;61938;48.652;9.292;2023-05-16T06:17:12;11.40;99.90
73643;DHT22;61938;48.652;9.292;2023-05-16T06:19:38;11.40;99.90
73643;DHT22;61938;48.652;9.292;2023-05-16T06:22:03;11.50;99.90
73643;DHT22;61938;48.652;9.292;2023-05-16T06:24:29;11.50;99.90
73643;DHT22;61938;48.652;9.292;2023-05-16T06:26:55;11.60;99.90
73643;DHT22;61938;48.652;9.292;2023-05-16T06:29:20;11.60;99.90
73643;DHT22;61938;48.652;9.292;2023-05-16T06:31:46;11.60;99.90
73643;DHT22;61938;48.652;9.292;2023-05-16T06:34:11;11.70;99.90
73643;DHT22;61938;48.652;9.292;2023-05-16T06:36:37;11.70;99.90
73643;DHT22;61938;48.652;9.292;2023-05-16T06:39:02;11.70;99.90
73643;DHT22;61938;48.652;9.292;2023-05-16T06:41:29;11.80;99.90
73643;DHT22;61938;48.652;9.292;2023-05-16T06:43:55;11.70;99.90
73643;DHT22;61938;48.652;9.292;2023-05-16T06:46:20;11.80;99.90
73643;DHT22;61938;48.652;9.292;2023-05-16T06:48:46;11.80;99.90
73643;DHT22;61938;48.652;9.292;2023-05-16T06:51:11;11.80;99.90
73643;DHT22;61938;48.652;9.292;2023-05-16T06:53:37;11.80;99.90
73643;DHT22;61938;48.652;9.292;2023-05-16T06:56:03;11.80;99.90
73643;DHT22;61938;48.652;9.292;2023-05-16T06:58:28;11.80;99.90
73643;DHT22;61938;48.652;9.292;2023-05-16T07:00:54;11.80;99.90
73643;DHT22;61938;48.652;9.292;2023-05-16T07:03:19;11.70;99.90
73643;DHT22;61938;48.652;9.292;2023-05-16T07:05:45;11.70;99.90
73643;DHT22;61938;48.652;9.292;2023-05-16T07:08:11;11.70;99.90
73643;DHT22;61938;48.652;9.292;2023-05-16T07:10:37;11.70;99.90
73643;DHT22;61938;48.652;9.292;2023-05-16T07:13:02;11.80;99.90
73643;DHT22;61938;48.652;9.292;2023-05-16T07:15:29;11.80;99.90
73643;DHT22;61938;48.652;9.292;2023-05-16T07:17:55;11.80;99.90
73643;DHT22;61938;48.652;9.292;2023-05-16T07:20:21;11.80;99.90
73643;DHT22;61938;48.652;9.292;2023-05-16T07:22:47;11.80;99.90
73643;DHT22;61938;48.652;9.292;2023-05-16T07:25:12;11.80;99.90
73643;DHT22;61938;48.652;9.292;2023-05-16T07:27:39;11.80;99.90
73643;DHT22;61938;48.652;9.292;2023-05-16T07:30:11;11.80;99.90
73643;DHT22;61938;48.652;9.292;2023-05-16T07:32:36;11.80;99.90
73643;DHT22;61938;48.652;9.292;2023-05-16T07:35:03;11.90;99.90
73643;DHT22;61938;48.652;9.292;2023-05-16T07:37:29;11.80;99.90
73643;DHT22;61938;48.652;9.292;2023-05-16T07:39:54;11.80;99.90
73643;DHT22;61938;48.652;9.292;2023-05-16T07:42:20;11.80;99.90
73643;DHT22;61938;48.652;9.292;2023-05-16T07:44:46;11.80;99.90
73643;DHT22;61938;48.652;9.292;2023-05-16T07:47:11;11.80;99.90
73643;DHT22;61938;48.652;9.292;2023-05-16T07:49:37;11.80;99.90
73643;DHT22;61938;48.652;9.292;2023-05-16T07:52:02;11.70;99.90
73643;DHT22;61938;48.652;9.292;2023-05-16T07:54:28;11.70;99.90
73643;DHT22;61938;48.652;9.292;2023-05-16T07:56:54;11.80;99.90
73643;DHT22;61938;48.652;9.292;2023-05-16T07:59:19;11.80;99.90
73643;DHT22;61938;48.652;9.292;2023-05-16T08:01:45;11.80;99.90
73643;DHT22;61938;48.652;9.292;2023-05-16T08:04:10;11.80;99.90
73643;DHT22;61938;48.652;9.292;2023-05-16T08:06:36;11.80;99.90
73643;DHT22;61938;48.652;9.292;2023-05-16T08:09:01;11.80;99.90
73643;DHT22;61938;48.652;9.292;2023-05-16T08:11:27;11.70;99.90
73643;DHT22;61938;48.652;9.292;2023-05-16T08:13:53;11.70;99.90
73643;DHT22;61938;48.652;9.292;2023-05-16T08:16:18;11.80;99.90
73643;DHT22;61938;48.652;9.292;2023-05-16T08:18:44;11.70;99.90
73643;DHT22;61938;48.652;9.292;2023-05-16T08:21:10;11.70;99.90
73643;DHT22;61938;48.652;9.292;2023-05-16T08:23:35;11.70;99.90
73643;DHT22;61938;48.652;9.292;2023-05-16T08:26:01;11.80;99.90
73643;DHT22;61938;48.652;9.292;2023-05-16T08:28:27;11.80;99.90
73643;DHT22;61938;48.652;9.292;2023-05-16T08:30:53;11.80;99.90
73643;DHT22;61938;48.652;9.292;2023-05-16T08:33:19;11.90;99.90
73643;DHT22;61938;48.652;9.292;2023-05-16T08:35:45;11.90;99.90
73643;DHT22;61938;48.652;9.292;2023-05-16T08:38:13;11.90;99.90
73643;DHT22;61938;48.652;9.292;2023-05-16T08:40:39;11.90;99.90
73643;DHT22;61938;48.652;9.292;2023-05-16T08:43:05;11.90;99.90
73643;DHT22;61938;48.652;9.292;2023-05-16T08:45:31;11.80;99.90
73643;DHT22;61938;48.652;9.292;2023-05-16T08:48:00;11.80;99.90
73643;DHT22;61938;48.652;9.292;2023-05-16T08:50:30;11.80;99.90
73643;DHT22;61938;48.652;9.292;2023-05-16T08:52:56;11.70;99.90
73643;DHT22;61938;48.652;9.292;2023-05-16T08:55:23;11.80;99.90
73643;DHT22;61938;48.652;9.292;2023-05-16T08:57:50;11.70;99.90
73643;DHT22;61938;48.652;9.292;2023-05-16T09:00:17;11.70;99.90
73643;DHT22;61938;48.652;9.292;2023-05-16T09:02:44;11.70;99.90
73643;DHT22;61938;48.652;9.292;2023-05-16T09:05:12;11.70;99.90
73643;DHT22;61938;48.652;9.292;2023-05-16T09:07:38;11.70;99.90
73643;DHT22;61938;48.652;9.292;2023-05-16T09:10:06;11.70;99.90
73643;DHT22;61938;48.652;9.292;2023-05-16T09:12:32;11.70;99.90
73643;DHT22;61938;48.652;9.292;2023-05-16T09:15:01;11.70;99.90
73643;DHT22;61938;48.652;9.292;2023-05-16T09:17:39;11.70;99.90
73643;DHT22;61938;48.652;9.292;2023-05-16T09:20:16;11.70;99.90
73643;DHT22;61938;48.652;9.292;2023-05-16T09:22:52;11.70;99.90
73643;DHT22;61938;48.652;9.292;2023-05-16T09:25:19;11.70;99.90
73643;DHT22;61938;48.652;9.292;2023-05-16T09:27:46;11.70;99.90
73643;DHT22;61938;48.652;9.292;2023-05-16T09:30:14;11.70;99.90
73643;DHT22;61938;48.652;9.292;2023-05-16T09:32:44;11.80;99.90
73643;DHT22;61938;48.652;9.292;2023-05-16T09:35:14;11.70;99.90
73643;DHT22;61938;48.652;9.292;2023-05-16T09:37:47;11.70;99.90
73643;DHT22;61938;48.652;9.292;2023-05-16T09:40:14;11.70;99.90
73643;DHT22;61938;48.652;9.292;2023-05-16T09:42:41;11.80;99.90
73643;DHT22;61938;48.652;9.292;2023-05-16T09:45:11;11.80;99.90
73643;DHT22;61938;48.652;9.292;2023-05-16T09:47:37;11.80;99.90
73643;DHT22;61938;48.652;9.292;2023-05-16T09:50:10;11.80;99.90
73643;DHT22;61938;48.652;9.292;2023-05-16T09:52:36;11.80;99.90
73643;DHT22;61938;48.652;9.292;2023-05-16T09:55:06;11.80;99.90
73643;DHT22;61938;48.652;9.292;2023-05-16T09:57:31;11.80;99.90
73643;DHT22;61938;48.652;9.292;2023-05-16T09:59:58;12.10;99.90
73643;DHT22;61938;48.652;9.292;2023-05-16T10:02:25;11.70;99.90
73643;DHT22;61938;48.652;9.292;2023-05-16T10:04:51;11.70;99.90
73643;DHT22;61938;48.652;9.292;2023-05-16T10:07:17;11.70;99.90
73643;DHT22;61938;48.652;9.292;2023-05-16T10:09:44;11.70;99.90
73643;DHT22;61938;48.652;9.292;2023-05-16T10:12:12;11.70;99.90
73643;DHT22;61938;48.652;9.292;2023-05-16T10:14:40;11.80;99.90
73643;DHT22;61938;48.652;9.292;2023-05-16T10:17:07;11.90;99.90
73643;DHT22;61938;48.652;9.292;2023-05-16T10:19:38;11.90;99.90
73643;DHT22;61938;48.652;9.292;2023-05-16T10:22:05;11.90;99.90
73643;DHT22;61938;48.652;9.292;2023-05-16T10:27:07;12.00;99.90
73643;DHT22;61938;48.652;9.292;2023-05-16T10:29:33;11.90;99.90
73643;DHT22;61938;48.652;9.292;2023-05-16T10:31:59;11.90;99.90
73643;DHT22;61938;48.652;9.292;2023-05-16T10:34:25;11.90;99.90
73643;DHT22;61938;48.652;9.292;2023-05-16T10:36:51;11.90;99.90
73643;DHT22;61938;48.652;9.292;2023-05-16T10:39:18;11.90;99.90
73643;DHT22;61938;48.652;9.292;2023-05-16T10:41:44;12.00;99.90
73643;DHT22;61938;48.652;9.292;2023-05-16T10:44:14;12.00;99.90
73643;DHT22;61938;48.652;9.292;2023-05-16T10:46:43;12.00;99.90
73643;DHT22;61938;48.652;9.292;2023-05-16T10:49:22;12.00;99.90
73643;DHT22;61938;48.652;9.292;2023-05-16T10:52:10;12.00;99.90
73643;DHT22;61938;48.652;9.292;2023-05-16T10:54:41;12.00;99.90
73643;DHT22;61938;48.652;9.292;2023-05-16T10:57:15;12.00;99.90
73643;DHT22;61938;48.652;9.292;2023-05-16T10:59:44;12.10;99.90
73643;DHT22;61938;48.652;9.292;2023-05-16T11:02:24;12.10;99.90
73643;DHT22;61938;48.652;9.292;2023-05-16T11:04:51;12.10;99.90
73643;DHT22;61938;48.652;9.292;2023-05-16T11:07:18;12.20;99.90
73643;DHT22;61938;48.652;9.292;2023-05-16T11:09:49;12.20;99.90
73643;DHT22;61938;48.652;9.292;2023-05-16T11:12:19;12.20;99.90
73643;DHT22;61938;48.652;9.292;2023-05-16T11:14:50;12.10;99.90
73643;DHT22;61938;48.652;9.292;2023-05-16T11:17:23;12.10;99.90
73643;DHT22;61938;48.652;9.292;2023-05-16T11:19:56;12.10;99.90
73643;DHT22;61938;48.652;9.292;2023-05-16T11:22:24;12.20;99.90
73643;DHT22;61938;48.652;9.292;2023-05-16T11:24:53;12.20;99.90
73643;DHT22;61938;48.652;9.292;2023-05-16T11:27:30;12.20;99.90
73643;DHT22;61938;48.652;9.292;2023-05-16T11:32:36;12.30;99.90
73643;DHT22;61938;48.652;9.292;2023-05-16T11:35:02;12.30;99.90
73643;DHT22;61938;48.652;9.292;2023-05-16T11:37:28;12.40;99.90
73643;DHT22;61938;48.652;9.292;2023-05-16T11:39:58;12.30;99.90
73643;DHT22;61938;48.652;9.292;2023-05-16T11:42:28;12.30;99.90
73643;DHT22;61938;48.652;9.292;2023-05-16T11:45:08;12.30;99.90
73643;DHT22;61938;48.652;9.292;2023-05-16T11:47:40;12.30;99.90
73643;DHT22;61938;48.652;9.292;2023-05-16T11:50:10;12.30;99.90
73643;DHT22;61938;48.652;9.292;2023-05-16T11:52:36;12.30;99.90
73643;DHT22;61938;48.652;9.292;2023-05-16T11:55:06;12.40;99.90
73643;DHT22;61938;48.652;9.292;2023-05-16T11:57:32;12.50;99.90
73643;DHT22;61938;48.652;9.292;2023-05-16T12:00:03;12.40;99.90
73643;DHT22;61938;48.652;9.292;2023-05-16T12:02:30;12.30;99.90
73643;DHT22;61938;48.652;9.292;2023-05-16T12:04:56;12.30;99.90
73643;DHT22;61938;48.652;9.292;2023-05-16T12:07:27;12.40;99.90
73643;DHT22;61938;48.652;9.292;2023-05-16T12:09:53;12.30;99.90
73643;DHT22;61938;48.652;9.292;2023-05-16T12:12:19;12.20;99.90
73643;DHT22;61938;48.652;9.292;2023-05-16T12:14:45;12.30;99.90
73643;DHT22;61938;48.652;9.292;2023-05-16T12:17:11;12.30;99.90
73643;DHT22;61938;48.652;9.292;2023-05-16T12:19:37;12.20;99.90
73643;DHT22;61938;48.652;9.292;2023-05-16T12:22:02;12.10;99.90
73643;DHT22;61938;48.652;9.292;2023-05-16T12:24:29;12.10;99.90
73643;DHT22;61938;48.652;9.292;2023-05-16T12:26:56;12.00;99.90
73643;DHT22;61938;48.652;9.292;2023-05-16T12:29:21;12.00;99.90
73643;DHT22;61938;48.652;9.292;2023-05-16T12:31:51;11.90;99.90
73643;DHT22;61938;48.652;9.292;2023-05-16T12:34:18;11.80;99.90
73643;DHT22;61938;48.652;9.292;2023-05-16T12:36:50;11.90;99.90
73643;DHT22;61938;48.652;9.292;2023-05-16T12:39:15;11.80;99.90
73643;DHT22;61938;48.652;9.292;2023-05-16T12:41:42;11.70;99.90
73643;DHT22;61938;48.652;9.292;2023-05-16T12:44:18;11.70;99.90
73643;DHT22;61938;48.652;9.292;2023-05-16T12:46:49;11.80;99.90
73643;DHT22;61938;48.652;9.292;2023-05-16T12:49:21;11.80;99.90
73643;DHT22;61938;48.652;9.292;2023-05-16T12:51:48;11.70;99.90
73643;DHT22;61938;48.652;9.292;2023-05-16T12:54:14;11.70;99.90
73643;DHT22;61938;48.652;9.292;2023-05-16T12:56:40;11.70;99.90
73643;DHT22;61938;48.652;9.292;2023-05-16T12:59:06;11.70;99.90
73643;DHT22;61938;48.652;9.292;2023-05-16T13:01:33;11.70;99.90
73643;DHT22;61938;48.652;9.292;2023-05-16T13:03:59;11.70;99.90
73643;DHT22;61938;48.652;9.292;2023-05-16T13:06:25;11.70;99.90
73643;DHT22;61938;48.652;9.292;2023-05-16T13:08:51;11.70;99.90
73643;DHT22;61938;48.652;9.292;2023-05-16T13:11:16;11.70;99.90
73643;DHT22;61938;48.652;9.292;2023-05-16T13:13:43;11.80;99.90
73643;DHT22;61938;48.652;9.292;2023-05-16T13:16:09;11.80;99.90
73643;DHT22;61938;48.652;9.292;2023-05-16T13:18:34;11.80;99.90
73643;DHT22;61938;48.652;9.292;2023-05-16T13:21:01;11.90;99.90
73643;DHT22;61938;48.652;9.292;2023-05-16T13:23:28;11.90;99.90
73643;DHT22;61938;48.652;9.292;2023-05-16T13:25:53;12.20;99.90
73643;DHT22;61938;48.652;9.292;2023-05-16T13:28:19;12.00;99.90
73643;DHT22;61938;48.652;9.292;2023-05-16T13:30:45;12.00;99.90
73643;DHT22;61938;48.652;9.292;2023-05-16T13:33:11;12.00;99.90
73643;DHT22;61938;48.652;9.292;2023-05-16T13:35:36;12.10;99.90
73643;DHT22;61938;48.652;9.292;2023-05-16T13:38:02;12.10;99.90
73643;DHT22;61938;48.652;9.292;2023-05-16T13:40:28;12.10;99.90
73643;DHT22;61938;48.652;9.292;2023-05-16T13:42:54;12.10;99.90
73643;DHT22;61938;48.652;9.292;2023-05-16T13:45:21;12.10;99.90
73643;DHT22;61938;48.652;9.292;2023-05-16T13:47:46;12.10;99.90
73643;DHT22;61938;48.652;9.292;2023-05-16T13:50:12;12.10;99.90
73643;DHT22;61938;48.652;9.292;2023-05-16T13:52:38;12.10;99.90
73643;DHT22;61938;48.652;9.292;2023-05-16T13:55:04;12.00;99.90
73643;DHT22;61938;48.652;9.292;2023-05-16T13:57:30;12.00;99.90
73643;DHT22;61938;48.652;9.292;2023-05-16T13:59:56;12.00;99.90
73643;DHT22;61938;48.652;9.292;2023-05-16T14:02:21;12.00;99.90
73643;DHT22;61938;48.652;9.292;2023-05-16T14:04:49;12.00;99.90
73643;DHT22;61938;48.652;9.292;2023-05-16T14:07:14;12.10;99.90
73643;DHT22;61938;48.652;9.292;2023-05-16T14:09:40;12.00;99.90
73643;DHT22;61938;48.652;9.292;2023-05-16T14:12:06;12.10;99.90
73643;DHT22;61938;48.652;9.292;2023-05-16T14:14:33;12.20;99.90
73643;DHT22;61938;48.652;9.292;2023-05-16T14:16:58;12.30;99.90
73643;DHT22;61938;48.652;9.292;2023-05-16T14:19:24;12.30;99.90
73643;DHT22;61938;48.652;9.292;2023-05-16T14:21:50;12.20;99.90
73643;DHT22;61938;48.652;9.292;2023-05-16T14:24:15;12.10;99.90
73643;DHT22;61938;48.652;9.292;2023-05-16T14:26:41;12.00;99.90
73643;DHT22;61938;48.652;9.292;2023-05-16T14:29:06;12.00;99.90
73643;DHT22;61938;48.652;9.292;2023-05-16T14:31:32;12.00;99.90
73643;DHT22;61938;48.652;9.292;2023-05-16T14:33:57;11.90;99.90
73643;DHT22;61938;48.652;9.292;2023-05-16T14:36:24;11.90;99.90
73643;DHT22;61938;48.652;9.292;2023-05-16T14:38:49;11.90;99.90
73643;DHT22;61938;48.652;9.292;2023-05-16T14:41:15;11.90;99.90
73643;DHT22;61938;48.652;9.292;2023-05-16T14:43:41;12.00;99.90
73643;DHT22;61938;48.652;9.292;2023-05-16T14:46:06;11.90;99.90
73643;DHT22;61938;48.652;9.292;2023-05-16T14:48:32;11.80;99.90
73643;DHT22;61938;48.652;9.292;2023-05-16T14:50:58;11.70;99.90
73643;DHT22;61938;48.652;9.292;2023-05-16T14:53:24;11.70;99.90
73643;DHT22;61938;48.652;9.292;2023-05-16T14:55:50;11.80;99.90
73643;DHT22;61938;48.652;9.292;2023-05-16T14:58:15;11.70;99.90
73643;DHT22;61938;48.652;9.292;2023-05-16T15:00:40;11.70;99.90
73643;DHT22;61938;48.652;9.292;2023-05-16T15:03:06;11.70;99.90
73643;DHT22;61938;48.652;9.292;2023-05-16T15:05:32;11.80;99.90
73643;DHT22;61938;48.652;9.292;2023-05-16T15:07:58;11.80;99.90
73643;DHT22;61938;48.652;9.292;2023-05-16T15:10:24;11.80;99.90
73643;DHT22;61938;48.652;9.292;2023-05-16T15:12:50;11.80;99.90
73643;DHT22;61938;48.652;9.292;2023-05-16T15:15:15;11.80;99.90
73643;DHT22;61938;48.652;9.292;2023-05-16T15:17:41;12.00;99.90
73643;DHT22;61938;48.652;9.292;2023-05-16T15:20:08;11.80;99.90
73643;DHT22;61938;48.652;9.292;2023-05-16T15:22:35;11.80;99.90
73643;DHT22;61938;48.652;9.292;2023-05-16T15:25:01;11.90;99.90
73643;DHT22;61938;48.652;9.292;2023-05-16T15:27:27;11.90;99.90
73643;DHT22;61938;48.652;9.292;2023-05-16T15:29:52;11.90;99.90
73643;DHT22;61938;48.652;9.292;2023-05-16T15:32:18;11.90;99.90
73643;DHT22;61938;48.652;9.292;2023-05-16T15:34:43;11.90;99.90
73643;DHT22;61938;48.652;9.292;2023-05-16T15:37:09;11.90;99.90
73643;DHT22;61938;48.652;9.292;2023-05-16T15:39:34;11.80;99.90